Little Egypt, Louisiana
Current Conditions -  °F | °C
As of 12:15 AM on Friday 19 Dec 2014 (Local Time) from KIER Reporting Station
Overcast Overcast  
Wind Chill: 51°   Ceiling: 1200
Heat Index: 51°   Visibility: 10mi
Dew Point: 49°   Wind: 5mph
Humidity: 92%   Direction: 60°ENE
Pressure: 30.12"   Gusts: NA
Location:  31.7926°N, 93.4001°W
Report Text: KIER 190615Z AUTO 06004KT 10SM OVC012 11/09 A3012 RMK AO2 LTG DSNT SW T01060093
Loading
Personal Weather Stations






























Interactive Weather Map New forecast layout! Learn more

10-Day Weather Forecast

Advertisements
Track Severe Weather on mobile